sensor_id;sensor_type;location;lat;lon;timestamp;temperature;humidity
5364;DHT22;2705;41.410;2.160;2022-09-20T00:01:39;23.30;99.90
5364;DHT22;2705;41.410;2.160;2022-09-20T00:04:10;23.20;99.90
5364;DHT22;2705;41.410;2.160;2022-09-20T00:06:39;23.20;99.90
5364;DHT22;2705;41.410;2.160;2022-09-20T00:09:08;23.10;99.90
5364;DHT22;2705;41.410;2.160;2022-09-20T00:11:38;23.20;99.90
5364;DHT22;2705;41.410;2.160;2022-09-20T00:14:07;23.20;99.90
5364;DHT22;2705;41.410;2.160;2022-09-20T00:16:39;23.20;99.90
5364;DHT22;2705;41.410;2.160;2022-09-20T00:19:16;23.20;99.90
5364;DHT22;2705;41.410;2.160;2022-09-20T00:21:45;23.10;99.90
5364;DHT22;2705;41.410;2.160;2022-09-20T00:24:14;23.10;99.90
5364;DHT22;2705;41.410;2.160;2022-09-20T00:26:43;23.00;99.90
5364;DHT22;2705;41.410;2.160;2022-09-20T00:29:12;22.90;99.90
5364;DHT22;2705;41.410;2.160;2022-09-20T00:31:42;22.90;99.90
5364;DHT22;2705;41.410;2.160;2022-09-20T00:34:13;22.90;99.90
5364;DHT22;2705;41.410;2.160;2022-09-20T00:37:00;22.80;99.90
5364;DHT22;2705;41.410;2.160;2022-09-20T00:39:29;22.80;99.90
5364;DHT22;2705;41.410;2.160;2022-09-20T00:41:58;22.70;99.90
5364;DHT22;2705;41.410;2.160;2022-09-20T00:44:48;22.80;99.90
5364;DHT22;2705;41.410;2.160;2022-09-20T00:47:23;22.70;99.90
5364;DHT22;2705;41.410;2.160;2022-09-20T00:50:02;22.60;99.90
5364;DHT22;2705;41.410;2.160;2022-09-20T00:52:34;22.60;99.90
5364;DHT22;2705;41.410;2.160;2022-09-20T00:55:07;22.60;99.90
5364;DHT22;2705;41.410;2.160;2022-09-20T00:57:37;22.60;99.90
5364;DHT22;2705;41.410;2.160;2022-09-20T01:00:08;22.60;99.90
5364;DHT22;2705;41.410;2.160;2022-09-20T01:02:40;22.60;99.90
5364;DHT22;2705;41.410;2.160;2022-09-20T01:05:14;22.60;99.90
5364;DHT22;2705;41.410;2.160;2022-09-20T01:07:45;22.60;99.90
5364;DHT22;2705;41.410;2.160;2022-09-20T01:10:15;22.60;99.90
5364;DHT22;2705;41.410;2.160;2022-09-20T01:12:45;22.60;99.90
5364;DHT22;2705;41.410;2.160;2022-09-20T01:15:15;22.60;99.90
5364;DHT22;2705;41.410;2.160;2022-09-20T01:17:46;22.60;99.90
5364;DHT22;2705;41.410;2.160;2022-09-20T01:20:21;22.70;99.90
5364;DHT22;2705;41.410;2.160;2022-09-20T01:23:09;22.80;99.90
5364;DHT22;2705;41.410;2.160;2022-09-20T01:26:23;22.70;99.90
5364;DHT22;2705;41.410;2.160;2022-09-20T01:29:02;22.80;99.90
5364;DHT22;2705;41.410;2.160;2022-09-20T01:31:35;22.70;99.90
5364;DHT22;2705;41.410;2.160;2022-09-20T01:34:11;22.70;99.90
5364;DHT22;2705;41.410;2.160;2022-09-20T01:36:45;22.70;99.90
5364;DHT22;2705;41.410;2.160;2022-09-20T01:39:24;22.60;99.90
5364;DHT22;2705;41.410;2.160;2022-09-20T01:42:00;22.60;99.90
5364;DHT22;2705;41.410;2.160;2022-09-20T01:44:36;22.60;99.90
5364;DHT22;2705;41.410;2.160;2022-09-20T01:47:13;22.60;99.90
5364;DHT22;2705;41.410;2.160;2022-09-20T01:49:54;22.50;99.90
5364;DHT22;2705;41.410;2.160;2022-09-20T02:02:06;22.20;99.90
5364;DHT22;2705;41.410;2.160;2022-09-20T02:05:03;22.20;99.90
5364;DHT22;2705;41.410;2.160;2022-09-20T02:08:01;22.20;99.90
5364;DHT22;2705;41.410;2.160;2022-09-20T02:10:44;22.20;99.90
5364;DHT22;2705;41.410;2.160;2022-09-20T02:13:26;22.30;99.90
5364;DHT22;2705;41.410;2.160;2022-09-20T02:16:20;22.40;99.90
5364;DHT22;2705;41.410;2.160;2022-09-20T02:19:10;22.40;99.90
5364;DHT22;2705;41.410;2.160;2022-09-20T02:21:49;22.40;99.90
5364;DHT22;2705;41.410;2.160;2022-09-20T02:24:28;22.40;99.90
5364;DHT22;2705;41.410;2.160;2022-09-20T02:27:08;22.40;99.90
5364;DHT22;2705;41.410;2.160;2022-09-20T02:29:44;22.40;99.90
5364;DHT22;2705;41.410;2.160;2022-09-20T02:32:27;22.20;99.90
5364;DHT22;2705;41.410;2.160;2022-09-20T02:35:13;22.20;99.90
5364;DHT22;2705;41.410;2.160;2022-09-20T02:37:56;22.40;99.90
5364;DHT22;2705;41.410;2.160;2022-09-20T02:40:50;22.40;99.90
5364;DHT22;2705;41.410;2.160;2022-09-20T02:43:28;22.40;99.90
5364;DHT22;2705;41.410;2.160;2022-09-20T02:46:02;22.50;99.90
5364;DHT22;2705;41.410;2.160;2022-09-20T02:48:41;22.50;99.90
5364;DHT22;2705;41.410;2.160;2022-09-20T02:51:19;22.50;99.90
5364;DHT22;2705;41.410;2.160;2022-09-20T02:53:57;22.50;99.90
5364;DHT22;2705;41.410;2.160;2022-09-20T02:56:37;22.60;99.90
5364;DHT22;2705;41.410;2.160;2022-09-20T02:59:18;22.60;99.90
5364;DHT22;2705;41.410;2.160;2022-09-20T03:02:08;22.60;99.90
5364;DHT22;2705;41.410;2.160;2022-09-20T03:04:50;22.60;99.90
5364;DHT22;2705;41.410;2.160;2022-09-20T03:07:31;22.70;99.90
5364;DHT22;2705;41.410;2.160;2022-09-20T03:10:11;22.80;99.90
5364;DHT22;2705;41.410;2.160;2022-09-20T03:12:53;22.70;99.90
5364;DHT22;2705;41.410;2.160;2022-09-20T03:15:32;22.40;99.90
5364;DHT22;2705;41.410;2.160;2022-09-20T03:18:09;22.40;99.90
5364;DHT22;2705;41.410;2.160;2022-09-20T03:20:45;22.60;99.90
5364;DHT22;2705;41.410;2.160;2022-09-20T03:23:32;22.80;99.90
5364;DHT22;2705;41.410;2.160;2022-09-20T03:26:15;22.90;99.90
5364;DHT22;2705;41.410;2.160;2022-09-20T03:28:55;22.80;99.90
5364;DHT22;2705;41.410;2.160;2022-09-20T03:31:43;22.90;99.90
5364;DHT22;2705;41.410;2.160;2022-09-20T03:34:31;22.80;99.90
5364;DHT22;2705;41.410;2.160;2022-09-20T03:37:14;22.70;99.90
5364;DHT22;2705;41.410;2.160;2022-09-20T03:40:21;22.60;99.90
5364;DHT22;2705;41.410;2.160;2022-09-20T03:42:59;22.60;99.90
5364;DHT22;2705;41.410;2.160;2022-09-20T03:45:43;22.60;99.90
5364;DHT22;2705;41.410;2.160;2022-09-20T03:48:23;22.70;99.90
5364;DHT22;2705;41.410;2.160;2022-09-20T03:51:12;22.70;99.90
5364;DHT22;2705;41.410;2.160;2022-09-20T04:00:03;22.60;99.90
5364;DHT22;2705;41.410;2.160;2022-09-20T04:05:36;22.50;99.90
5364;DHT22;2705;41.410;2.160;2022-09-20T04:08:17;22.60;99.90
5364;DHT22;2705;41.410;2.160;2022-09-20T04:10:58;22.60;99.90
5364;DHT22;2705;41.410;2.160;2022-09-20T04:13:35;22.50;99.90
5364;DHT22;2705;41.410;2.160;2022-09-20T04:16:19;22.30;99.90
5364;DHT22;2705;41.410;2.160;2022-09-20T04:18:55;22.30;99.90
5364;DHT22;2705;41.410;2.160;2022-09-20T04:21:30;22.40;99.90
5364;DHT22;2705;41.410;2.160;2022-09-20T04:24:03;22.40;99.90
5364;DHT22;2705;41.410;2.160;2022-09-20T04:26:38;22.40;99.90
5364;DHT22;2705;41.410;2.160;2022-09-20T04:29:30;22.30;99.90
5364;DHT22;2705;41.410;2.160;2022-09-20T04:32:11;22.10;99.90
5364;DHT22;2705;41.410;2.160;2022-09-20T04:34:46;22.30;99.90
5364;DHT22;2705;41.410;2.160;2022-09-20T04:37:36;22.30;99.90
5364;DHT22;2705;41.410;2.160;2022-09-20T04:40:16;22.30;99.90
5364;DHT22;2705;41.410;2.160;2022-09-20T04:43:23;22.40;99.90
5364;DHT22;2705;41.410;2.160;2022-09-20T04:52:40;22.20;99.90
5364;DHT22;2705;41.410;2.160;2022-09-20T04:55:39;22.20;99.90
5364;DHT22;2705;41.410;2.160;2022-09-20T04:58:39;22.20;99.90
5364;DHT22;2705;41.410;2.160;2022-09-20T05:01:37;22.20;99.90
5364;DHT22;2705;41.410;2.160;2022-09-20T05:13:30;22.30;99.90
5364;DHT22;2705;41.410;2.160;2022-09-20T05:16:03;22.40;99.90
5364;DHT22;2705;41.410;2.160;2022-09-20T05:19:03;22.30;99.90
5364;DHT22;2705;41.410;2.160;2022-09-20T05:21:51;22.30;99.90
5364;DHT22;2705;41.410;2.160;2022-09-20T05:24:42;22.30;99.90
5364;DHT22;2705;41.410;2.160;2022-09-20T05:27:32;22.30;99.90
5364;DHT22;2705;41.410;2.160;2022-09-20T05:30:09;22.20;99.90
5364;DHT22;2705;41.410;2.160;2022-09-20T05:32:44;22.20;99.90
5364;DHT22;2705;41.410;2.160;2022-09-20T05:35:17;22.20;99.90
5364;DHT22;2705;41.410;2.160;2022-09-20T05:37:56;22.20;99.90
5364;DHT22;2705;41.410;2.160;2022-09-20T05:40:32;22.20;99.90
5364;DHT22;2705;41.410;2.160;2022-09-20T05:43:09;22.20;99.90
5364;DHT22;2705;41.410;2.160;2022-09-20T05:46:07;22.30;99.90
5364;DHT22;2705;41.410;2.160;2022-09-20T05:48:45;22.30;99.90
5364;DHT22;2705;41.410;2.160;2022-09-20T05:51:45;22.30;99.90
5364;DHT22;2705;41.410;2.160;2022-09-20T05:57:34;22.00;99.90
5364;DHT22;2705;41.410;2.160;2022-09-20T06:00:12;22.10;99.90
5364;DHT22;2705;41.410;2.160;2022-09-20T06:02:50;22.10;99.90
5364;DHT22;2705;41.410;2.160;2022-09-20T06:05:31;22.00;99.90
5364;DHT22;2705;41.410;2.160;2022-09-20T06:08:27;22.20;99.90
5364;DHT22;2705;41.410;2.160;2022-09-20T06:11:27;22.30;99.90
5364;DHT22;2705;41.410;2.160;2022-09-20T06:14:16;22.30;99.90
5364;DHT22;2705;41.410;2.160;2022-09-20T06:16:55;22.30;99.90
5364;DHT22;2705;41.410;2.160;2022-09-20T06:19:32;22.20;99.90
5364;DHT22;2705;41.410;2.160;2022-09-20T06:22:12;22.30;99.90
5364;DHT22;2705;41.410;2.160;2022-09-20T06:24:46;22.30;99.90
5364;DHT22;2705;41.410;2.160;2022-09-20T06:27:20;22.30;99.90
5364;DHT22;2705;41.410;2.160;2022-09-20T06:29:56;22.40;99.90
5364;DHT22;2705;41.410;2.160;2022-09-20T06:32:28;22.50;99.90
5364;DHT22;2705;41.410;2.160;2022-09-20T06:34:59;22.50;99.90
5364;DHT22;2705;41.410;2.160;2022-09-20T06:37:41;22.60;99.90
5364;DHT22;2705;41.410;2.160;2022-09-20T06:40:38;22.60;99.90
5364;DHT22;2705;41.410;2.160;2022-09-20T06:43:25;22.50;99.90
5364;DHT22;2705;41.410;2.160;2022-09-20T06:45:58;22.50;99.90
5364;DHT22;2705;41.410;2.160;2022-09-20T06:48:28;22.50;99.90
5364;DHT22;2705;41.410;2.160;2022-09-20T06:50:59;22.30;99.90
5364;DHT22;2705;41.410;2.160;2022-09-20T06:53:30;22.20;99.90
5364;DHT22;2705;41.410;2.160;2022-09-20T06:56:01;22.40;99.90
5364;DHT22;2705;41.410;2.160;2022-09-20T06:58:31;22.50;99.90
5364;DHT22;2705;41.410;2.160;2022-09-20T07:01:00;22.60;99.90
5364;DHT22;2705;41.410;2.160;2022-09-20T07:03:31;22.50;99.90
5364;DHT22;2705;41.410;2.160;2022-09-20T07:06:00;22.40;99.90
5364;DHT22;2705;41.410;2.160;2022-09-20T07:08:31;22.60;99.90
5364;DHT22;2705;41.410;2.160;2022-09-20T07:11:03;22.60;99.90
5364;DHT22;2705;41.410;2.160;2022-09-20T07:13:32;22.50;99.90
5364;DHT22;2705;41.410;2.160;2022-09-20T07:16:02;22.60;99.90
5364;DHT22;2705;41.410;2.160;2022-09-20T07:18:33;22.80;99.90
5364;DHT22;2705;41.410;2.160;2022-09-20T07:21:03;23.00;99.90
5364;DHT22;2705;41.410;2.160;2022-09-20T07:23:32;23.10;99.90
5364;DHT22;2705;41.410;2.160;2022-09-20T07:26:01;22.80;99.90
5364;DHT22;2705;41.410;2.160;2022-09-20T07:28:32;22.90;99.90
5364;DHT22;2705;41.410;2.160;2022-09-20T07:31:01;23.00;99.90
5364;DHT22;2705;41.410;2.160;2022-09-20T07:33:30;23.00;99.90
5364;DHT22;2705;41.410;2.160;2022-09-20T07:36:01;23.20;99.90
5364;DHT22;2705;41.410;2.160;2022-09-20T07:38:30;23.20;99.90
5364;DHT22;2705;41.410;2.160;2022-09-20T07:41:00;23.30;99.90
5364;DHT22;2705;41.410;2.160;2022-09-20T07:43:31;23.30;99.90
5364;DHT22;2705;41.410;2.160;2022-09-20T07:46:00;23.30;99.90
5364;DHT22;2705;41.410;2.160;2022-09-20T07:48:31;23.30;99.90
5364;DHT22;2705;41.410;2.160;2022-09-20T07:51:04;23.20;99.90
5364;DHT22;2705;41.410;2.160;2022-09-20T07:53:35;22.70;99.90
5364;DHT22;2705;41.410;2.160;2022-09-20T07:56:06;22.90;99.90
5364;DHT22;2705;41.410;2.160;2022-09-20T07:58:35;23.20;99.90
5364;DHT22;2705;41.410;2.160;2022-09-20T08:01:06;23.30;99.90
5364;DHT22;2705;41.410;2.160;2022-09-20T08:03:35;23.20;99.90
5364;DHT22;2705;41.410;2.160;2022-09-20T08:06:08;23.10;99.90
5364;DHT22;2705;41.410;2.160;2022-09-20T08:08:38;23.10;99.90
5364;DHT22;2705;41.410;2.160;2022-09-20T08:11:09;23.40;99.90
5364;DHT22;2705;41.410;2.160;2022-09-20T08:13:40;23.50;99.90
5364;DHT22;2705;41.410;2.160;2022-09-20T08:16:31;23.50;99.90
5364;DHT22;2705;41.410;2.160;2022-09-20T08:19:01;23.70;99.90
5364;DHT22;2705;41.410;2.160;2022-09-20T08:21:34;23.70;99.90
5364;DHT22;2705;41.410;2.160;2022-09-20T08:24:05;23.70;99.90
5364;DHT22;2705;41.410;2.160;2022-09-20T08:26:34;23.70;99.90
5364;DHT22;2705;41.410;2.160;2022-09-20T08:29:04;23.80;99.90
5364;DHT22;2705;41.410;2.160;2022-09-20T08:31:36;23.90;99.90
5364;DHT22;2705;41.410;2.160;2022-09-20T08:34:07;24.20;99.90
5364;DHT22;2705;41.410;2.160;2022-09-20T08:36:40;24.40;99.90
5364;DHT22;2705;41.410;2.160;2022-09-20T08:39:12;24.00;99.90
5364;DHT22;2705;41.410;2.160;2022-09-20T08:42:12;24.00;99.90
5364;DHT22;2705;41.410;2.160;2022-09-20T08:44:46;24.20;99.90
5364;DHT22;2705;41.410;2.160;2022-09-20T08:47:28;24.20;99.90
5364;DHT22;2705;41.410;2.160;2022-09-20T08:50:00;24.20;99.90
5364;DHT22;2705;41.410;2.160;2022-09-20T08:52:46;24.30;99.90
5364;DHT22;2705;41.410;2.160;2022-09-20T08:55:17;24.40;99.90
5364;DHT22;2705;41.410;2.160;2022-09-20T08:57:48;24.40;99.90
5364;DHT22;2705;41.410;2.160;2022-09-20T09:00:20;24.50;99.90
5364;DHT22;2705;41.410;2.160;2022-09-20T09:02:51;24.50;99.90
5364;DHT22;2705;41.410;2.160;2022-09-20T09:05:29;24.10;99.90
5364;DHT22;2705;41.410;2.160;2022-09-20T09:08:08;24.40;99.90
5364;DHT22;2705;41.410;2.160;2022-09-20T09:10:45;24.70;99.90
5364;DHT22;2705;41.410;2.160;2022-09-20T09:13:24;24.60;99.90
5364;DHT22;2705;41.410;2.160;2022-09-20T09:15:58;24.50;99.90
5364;DHT22;2705;41.410;2.160;2022-09-20T09:18:32;24.60;99.90
5364;DHT22;2705;41.410;2.160;2022-09-20T09:21:05;24.80;99.90
5364;DHT22;2705;41.410;2.160;2022-09-20T09:23:40;25.00;99.90
5364;DHT22;2705;41.410;2.160;2022-09-20T09:26:17;24.90;99.90
5364;DHT22;2705;41.410;2.160;2022-09-20T09:29:14;25.00;99.90
5364;DHT22;2705;41.410;2.160;2022-09-20T09:31:45;25.30;99.90
5364;DHT22;2705;41.410;2.160;2022-09-20T09:34:26;25.10;99.90
5364;DHT22;2705;41.410;2.160;2022-09-20T09:36:56;25.20;99.90
5364;DHT22;2705;41.410;2.160;2022-09-20T09:39:30;25.30;99.90
5364;DHT22;2705;41.410;2.160;2022-09-20T09:41:59;25.30;99.90
5364;DHT22;2705;41.410;2.160;2022-09-20T09:44:46;25.40;99.90
5364;DHT22;2705;41.410;2.160;2022-09-20T09:47:25;25.70;99.90
5364;DHT22;2705;41.410;2.160;2022-09-20T09:49:55;25.50;99.90
5364;DHT22;2705;41.410;2.160;2022-09-20T09:52:30;25.50;99.90
5364;DHT22;2705;41.410;2.160;2022-09-20T09:55:04;25.60;99.90
5364;DHT22;2705;41.410;2.160;2022-09-20T09:57:43;25.60;99.90
5364;DHT22;2705;41.410;2.160;2022-09-20T10:00:22;25.60;99.90
5364;DHT22;2705;41.410;2.160;2022-09-20T10:06:02;25.30;99.90
5364;DHT22;2705;41.410;2.160;2022-09-20T10:08:42;25.50;99.90
5364;DHT22;2705;41.410;2.160;2022-09-20T10:11:26;25.90;99.90
5364;DHT22;2705;41.410;2.160;2022-09-20T10:14:09;25.70;99.90
5364;DHT22;2705;41.410;2.160;2022-09-20T10:16:56;25.60;99.90
5364;DHT22;2705;41.410;2.160;2022-09-20T10:19:44;25.60;99.90
5364;DHT22;2705;41.410;2.160;2022-09-20T10:22:28;25.50;99.90
5364;DHT22;2705;41.410;2.160;2022-09-20T10:25:10;25.80;99.90
5364;DHT22;2705;41.410;2.160;2022-09-20T10:27:57;25.80;99.90
5364;DHT22;2705;41.410;2.160;2022-09-20T10:30:33;26.00;99.90
5364;DHT22;2705;41.410;2.160;2022-09-20T10:33:15;25.70;99.90
5364;DHT22;2705;41.410;2.160;2022-09-20T10:35:56;25.90;99.90
5364;DHT22;2705;41.410;2.160;2022-09-20T10:38:32;26.00;99.90
5364;DHT22;2705;41.410;2.160;2022-09-20T10:41:22;25.80;99.90
5364;DHT22;2705;41.410;2.160;2022-09-20T10:44:26;25.90;99.90
5364;DHT22;2705;41.410;2.160;2022-09-20T10:47:05;25.90;99.90
5364;DHT22;2705;41.410;2.160;2022-09-20T10:49:41;26.00;99.90
5364;DHT22;2705;41.410;2.160;2022-09-20T10:52:35;26.30;99.90
5364;DHT22;2705;41.410;2.160;2022-09-20T10:55:31;26.40;99.90
5364;DHT22;2705;41.410;2.160;2022-09-20T10:58:33;26.20;99.90
5364;DHT22;2705;41.410;2.160;2022-09-20T11:01:08;26.50;99.90
5364;DHT22;2705;41.410;2.160;2022-09-20T11:03:54;26.30;99.90
5364;DHT22;2705;41.410;2.160;2022-09-20T11:06:31;26.20;99.90
5364;DHT22;2705;41.410;2.160;2022-09-20T11:09:07;26.40;99.90
5364;DHT22;2705;41.410;2.160;2022-09-20T11:11:42;26.70;99.90
5364;DHT22;2705;41.410;2.160;2022-09-20T11:14:17;26.70;99.90
5364;DHT22;2705;41.410;2.160;2022-09-20T11:16:52;26.60;99.90
5364;DHT22;2705;41.410;2.160;2022-09-20T11:19:30;26.30;99.90
5364;DHT22;2705;41.410;2.160;2022-09-20T11:22:06;26.40;99.90
5364;DHT22;2705;41.410;2.160;2022-09-20T11:24:39;26.70;99.90
5364;DHT22;2705;41.410;2.160;2022-09-20T11:27:14;26.50;99.90
5364;DHT22;2705;41.410;2.160;2022-09-20T11:29:49;26.30;99.90
5364;DHT22;2705;41.410;2.160;2022-09-20T11:32:26;26.20;99.90
5364;DHT22;2705;41.410;2.160;2022-09-20T11:35:02;26.50;99.90
5364;DHT22;2705;41.410;2.160;2022-09-20T11:37:37;26.50;99.90
5364;DHT22;2705;41.410;2.160;2022-09-20T11:40:13;26.60;99.90
5364;DHT22;2705;41.410;2.160;2022-09-20T11:42:45;26.50;99.90
5364;DHT22;2705;41.410;2.160;2022-09-20T11:45:15;26.50;99.90
5364;DHT22;2705;41.410;2.160;2022-09-20T11:47:48;26.30;99.90
5364;DHT22;2705;41.410;2.160;2022-09-20T11:53:39;26.20;99.90
5364;DHT22;2705;41.410;2.160;2022-09-20T11:56:14;26.40;99.90
5364;DHT22;2705;41.410;2.160;2022-09-20T11:58:48;26.40;99.90
5364;DHT22;2705;41.410;2.160;2022-09-20T12:01:27;26.20;99.90
5364;DHT22;2705;41.410;2.160;2022-09-20T12:04:00;26.40;99.90
5364;DHT22;2705;41.410;2.160;2022-09-20T12:06:57;26.50;99.90
5364;DHT22;2705;41.410;2.160;2022-09-20T12:09:37;26.70;99.90
5364;DHT22;2705;41.410;2.160;2022-09-20T12:12:15;26.50;99.90
5364;DHT22;2705;41.410;2.160;2022-09-20T12:14:53;26.40;99.90
5364;DHT22;2705;41.410;2.160;2022-09-20T12:24:16;26.70;99.90
5364;DHT22;2705;41.410;2.160;2022-09-20T12:26:49;26.70;99.90
5364;DHT22;2705;41.410;2.160;2022-09-20T12:29:53;26.40;99.90
5364;DHT22;2705;41.410;2.160;2022-09-20T12:32:33;26.50;99.90
5364;DHT22;2705;41.410;2.160;2022-09-20T12:38:38;26.50;99.90
5364;DHT22;2705;41.410;2.160;2022-09-20T12:41:18;26.10;99.90
5364;DHT22;2705;41.410;2.160;2022-09-20T12:44:01;26.40;99.90
5364;DHT22;2705;41.410;2.160;2022-09-20T12:46:40;26.40;99.90
5364;DHT22;2705;41.410;2.160;2022-09-20T12:49:34;26.10;99.90
5364;DHT22;2705;41.410;2.160;2022-09-20T12:52:28;26.10;99.90
5364;DHT22;2705;41.410;2.160;2022-09-20T12:55:41;26.20;99.90
5364;DHT22;2705;41.410;2.160;2022-09-20T12:58:32;26.50;99.90
5364;DHT22;2705;41.410;2.160;2022-09-20T13:01:31;26.50;99.90
5364;DHT22;2705;41.410;2.160;2022-09-20T13:04:38;26.10;99.90
5364;DHT22;2705;41.410;2.160;2022-09-20T13:07:37;26.20;99.90
5364;DHT22;2705;41.410;2.160;2022-09-20T13:10:35;26.20;99.90
5364;DHT22;2705;41.410;2.160;2022-09-20T13:13:31;26.10;99.90
5364;DHT22;2705;41.410;2.160;2022-09-20T13:16:02;26.00;99.90
5364;DHT22;2705;41.410;2.160;2022-09-20T13:18:34;26.30;99.90
5364;DHT22;2705;41.410;2.160;2022-09-20T13:21:06;26.30;99.90
5364;DHT22;2705;41.410;2.160;2022-09-20T13:23:45;25.90;99.90
5364;DHT22;2705;41.410;2.160;2022-09-20T13:26:21;25.80;99.90
5364;DHT22;2705;41.410;2.160;2022-09-20T13:28:54;25.80;99.90
5364;DHT22;2705;41.410;2.160;2022-09-20T13:31:28;25.50;99.90
5364;DHT22;2705;41.410;2.160;2022-09-20T13:34:16;25.60;99.90
5364;DHT22;2705;41.410;2.160;2022-09-20T13:36:48;25.50;99.90
5364;DHT22;2705;41.410;2.160;2022-09-20T13:39:30;25.70;99.90
5364;DHT22;2705;41.410;2.160;2022-09-20T13:42:05;25.70;99.90
5364;DHT22;2705;41.410;2.160;2022-09-20T13:44:41;25.60;99.90
5364;DHT22;2705;41.410;2.160;2022-09-20T13:47:22;25.80;99.90
5364;DHT22;2705;41.410;2.160;2022-09-20T13:49:52;25.90;99.90
5364;DHT22;2705;41.410;2.160;2022-09-20T13:52:25;26.00;99.90
5364;DHT22;2705;41.410;2.160;2022-09-20T13:54:56;25.80;99.90
5364;DHT22;2705;41.410;2.160;2022-09-20T13:57:26;25.90;99.90
5364;DHT22;2705;41.410;2.160;2022-09-20T13:59:59;26.20;99.90
5364;DHT22;2705;41.410;2.160;2022-09-20T14:02:38;26.10;99.90
5364;DHT22;2705;41.410;2.160;2022-09-20T14:05:15;26.10;99.90
5364;DHT22;2705;41.410;2.160;2022-09-20T14:07:46;26.20;99.90
5364;DHT22;2705;41.410;2.160;2022-09-20T14:10:28;26.00;99.90
5364;DHT22;2705;41.410;2.160;2022-09-20T14:13:00;25.90;99.90
5364;DHT22;2705;41.410;2.160;2022-09-20T14:15:35;26.00;99.90
5364;DHT22;2705;41.410;2.160;2022-09-20T14:18:06;26.10;99.90
5364;DHT22;2705;41.410;2.160;2022-09-20T14:20:37;26.00;99.90
5364;DHT22;2705;41.410;2.160;2022-09-20T14:23:19;26.00;99.90
5364;DHT22;2705;41.410;2.160;2022-09-20T14:26:05;25.90;99.90
5364;DHT22;2705;41.410;2.160;2022-09-20T14:28:35;25.90;99.90
5364;DHT22;2705;41.410;2.160;2022-09-20T14:31:07;25.80;99.90
5364;DHT22;2705;41.410;2.160;2022-09-20T14:33:39;25.90;99.90
5364;DHT22;2705;41.410;2.160;2022-09-20T14:36:12;25.70;99.90
5364;DHT22;2705;41.410;2.160;2022-09-20T14:38:44;25.70;99.90
5364;DHT22;2705;41.410;2.160;2022-09-20T14:41:23;25.70;99.90
5364;DHT22;2705;41.410;2.160;2022-09-20T14:43:57;25.80;99.90
5364;DHT22;2705;41.410;2.160;2022-09-20T14:46:33;26.00;99.90
5364;DHT22;2705;41.410;2.160;2022-09-20T14:49:20;26.30;99.90
5364;DHT22;2705;41.410;2.160;2022-09-20T14:52:21;26.30;99.90
5364;DHT22;2705;41.410;2.160;2022-09-20T14:54:58;26.10;99.90
5364;DHT22;2705;41.410;2.160;2022-09-20T14:57:29;25.90;99.90
5364;DHT22;2705;41.410;2.160;2022-09-20T15:00:04;25.80;99.90
5364;DHT22;2705;41.410;2.160;2022-09-20T15:02:40;25.50;99.90
5364;DHT22;2705;41.410;2.160;2022-09-20T15:05:17;26.00;99.90
5364;DHT22;2705;41.410;2.160;2022-09-20T15:07:47;26.40;99.90
5364;DHT22;2705;41.410;2.160;2022-09-20T15:10:16;26.40;99.90
5364;DHT22;2705;41.410;2.160;2022-09-20T15:12:45;26.90;99.90
5364;DHT22;2705;41.410;2.160;2022-09-20T15:15:16;27.20;99.90
5364;DHT22;2705;41.410;2.160;2022-09-20T15:17:48;27.10;99.90
5364;DHT22;2705;41.410;2.160;2022-09-20T15:20:18;26.90;99.90
5364;DHT22;2705;41.410;2.160;2022-09-20T15:22:51;26.40;99.90
5364;DHT22;2705;41.410;2.160;2022-09-20T15:25:20;26.10;99.90
5364;DHT22;2705;41.410;2.160;2022-09-20T15:27:50;26.20;99.90
5364;DHT22;2705;41.410;2.160;2022-09-20T15:30:19;26.70;99.90
5364;DHT22;2705;41.410;2.160;2022-09-20T15:32:51;26.60;99.90
5364;DHT22;2705;41.410;2.160;2022-09-20T15:35:21;26.40;99.90
5364;DHT22;2705;41.410;2.160;2022-09-20T15:37:50;26.00;99.90
5364;DHT22;2705;41.410;2.160;2022-09-20T15:40:19;26.00;99.90
5364;DHT22;2705;41.410;2.160;2022-09-20T15:42:49;26.00;99.90
5364;DHT22;2705;41.410;2.160;2022-09-20T15:45:22;26.10;99.90
5364;DHT22;2705;41.410;2.160;2022-09-20T15:47:54;25.90;99.90
5364;DHT22;2705;41.410;2.160;2022-09-20T15:50:24;25.60;99.90
5364;DHT22;2705;41.410;2.160;2022-09-20T15:52:54;25.70;99.90
5364;DHT22;2705;41.410;2.160;2022-09-20T15:55:26;25.60;99.90
5364;DHT22;2705;41.410;2.160;2022-09-20T15:57:56;25.60;99.90
5364;DHT22;2705;41.410;2.160;2022-09-20T16:00:25;25.50;99.90
5364;DHT22;2705;41.410;2.160;2022-09-20T16:02:55;25.50;99.90
5364;DHT22;2705;41.410;2.160;2022-09-20T16:05:25;25.30;99.90
5364;DHT22;2705;41.410;2.160;2022-09-20T16:07:55;25.20;99.90
5364;DHT22;2705;41.410;2.160;2022-09-20T16:10:25;25.00;99.90
5364;DHT22;2705;41.410;2.160;2022-09-20T16:12:54;25.10;99.90
5364;DHT22;2705;41.410;2.160;2022-09-20T16:15:24;24.90;99.90
5364;DHT22;2705;41.410;2.160;2022-09-20T16:17:54;24.80;99.90
5364;DHT22;2705;41.410;2.160;2022-09-20T16:20:41;24.70;99.90
5364;DHT22;2705;41.410;2.160;2022-09-20T16:23:10;24.70;99.90
5364;DHT22;2705;41.410;2.160;2022-09-20T16:25:41;24.70;99.90
5364;DHT22;2705;41.410;2.160;2022-09-20T16:28:12;24.80;99.90
5364;DHT22;2705;41.410;2.160;2022-09-20T16:30:41;24.80;99.90
5364;DHT22;2705;41.410;2.160;2022-09-20T16:33:12;24.80;99.90
5364;DHT22;2705;41.410;2.160;2022-09-20T16:35:42;24.90;99.90
5364;DHT22;2705;41.410;2.160;2022-09-20T16:38:11;24.70;99.90
5364;DHT22;2705;41.410;2.160;2022-09-20T16:40:41;24.70;99.90
5364;DHT22;2705;41.410;2.160;2022-09-20T16:43:10;24.70;99.90
5364;DHT22;2705;41.410;2.160;2022-09-20T16:45:46;24.60;99.90
5364;DHT22;2705;41.410;2.160;2022-09-20T16:48:17;24.80;99.90
5364;DHT22;2705;41.410;2.160;2022-09-20T16:50:53;24.60;99.90
5364;DHT22;2705;41.410;2.160;2022-09-20T16:53:22;24.80;99.90
5364;DHT22;2705;41.410;2.160;2022-09-20T16:55:53;24.90;99.90
5364;DHT22;2705;41.410;2.160;2022-09-20T16:58:26;24.90;99.90
5364;DHT22;2705;41.410;2.160;2022-09-20T17:01:02;24.70;99.90
5364;DHT22;2705;41.410;2.160;2022-09-20T17:03:33;24.80;99.90
5364;DHT22;2705;41.410;2.160;2022-09-20T17:06:03;24.80;99.90
5364;DHT22;2705;41.410;2.160;2022-09-20T17:08:32;24.80;99.90
5364;DHT22;2705;41.410;2.160;2022-09-20T17:11:06;24.80;99.90
5364;DHT22;2705;41.410;2.160;2022-09-20T17:13:37;24.80;99.90
5364;DHT22;2705;41.410;2.160;2022-09-20T17:16:09;24.90;99.90
5364;DHT22;2705;41.410;2.160;2022-09-20T17:18:40;24.90;99.90
5364;DHT22;2705;41.410;2.160;2022-09-20T17:21:11;24.80;99.90
5364;DHT22;2705;41.410;2.160;2022-09-20T17:23:42;24.90;99.90
5364;DHT22;2705;41.410;2.160;2022-09-20T17:26:19;24.70;99.90
5364;DHT22;2705;41.410;2.160;2022-09-20T17:28:51;24.40;99.90
5364;DHT22;2705;41.410;2.160;2022-09-20T17:31:25;24.40;99.90
5364;DHT22;2705;41.410;2.160;2022-09-20T17:34:03;24.50;99.90
5364;DHT22;2705;41.410;2.160;2022-09-20T17:36:34;24.60;99.90
5364;DHT22;2705;41.410;2.160;2022-09-20T17:39:06;24.60;99.90
5364;DHT22;2705;41.410;2.160;2022-09-20T17:41:37;24.40;99.90
5364;DHT22;2705;41.410;2.160;2022-09-20T17:44:07;24.40;99.90
5364;DHT22;2705;41.410;2.160;2022-09-20T17:46:37;24.40;99.90
5364;DHT22;2705;41.410;2.160;2022-09-20T17:49:11;24.50;99.90
5364;DHT22;2705;41.410;2.160;2022-09-20T17:51:41;24.40;99.90
5364;DHT22;2705;41.410;2.160;2022-09-20T17:54:11;24.40;99.90
5364;DHT22;2705;41.410;2.160;2022-09-20T17:56:41;24.30;99.90
5364;DHT22;2705;41.410;2.160;2022-09-20T17:59:11;24.30;99.90
5364;DHT22;2705;41.410;2.160;2022-09-20T18:01:44;24.40;99.90